createdAt,value
2018-06-25T00:01:34.078Z,6.83
2018-06-25T00:04:03.036Z,5.43
2018-06-25T00:06:32.049Z,7.90
2018-06-25T00:09:01.101Z,5.90
2018-06-25T00:11:30.176Z,7.33
2018-06-25T00:13:59.146Z,4.47
2018-06-25T00:16:28.145Z,7.50
2018-06-25T00:18:57.280Z,7.70
2018-06-25T00:21:26.272Z,6.17
2018-06-25T00:23:55.435Z,7.10
2018-06-25T00:26:24.381Z,6.70
2018-06-25T00:28:53.407Z,6.27
2018-06-25T00:31:22.407Z,6.10
2018-06-25T00:33:51.362Z,5.90
2018-06-25T00:36:20.350Z,6.07
2018-06-25T00:38:49.354Z,6.50
2018-06-25T00:41:18.373Z,4.70
2018-06-25T00:43:47.345Z,8.30
2018-06-25T00:46:16.337Z,5.43
2018-06-25T00:48:45.361Z,7.00
2018-06-25T00:51:14.345Z,8.80
2018-06-25T00:53:43.301Z,8.00
2018-06-25T00:56:12.301Z,6.73
2018-06-25T00:58:52.841Z,7.57
2018-06-25T01:01:21.853Z,6.97
2018-06-25T01:03:50.867Z,7.13
2018-06-25T01:06:19.873Z,6.20
2018-06-25T01:08:48.881Z,7.90
2018-06-25T01:11:17.711Z,5.53
2018-06-25T01:13:46.615Z,6.87
2018-06-25T01:16:15.693Z,6.63
2018-06-25T01:18:44.787Z,7.17
2018-06-25T01:21:13.781Z,8.00
2018-06-25T01:23:42.785Z,8.33
2018-06-25T01:26:11.743Z,6.47
2018-06-25T01:28:40.737Z,7.80
2018-06-25T01:31:09.734Z,7.80
2018-06-25T01:33:38.734Z,6.67
2018-06-25T01:36:07.717Z,5.93
2018-06-25T01:38:37.250Z,8.23
2018-06-25T01:41:06.265Z,9.13
2018-06-25T01:43:35.331Z,7.77
2018-06-25T01:46:04.721Z,6.27
2018-06-25T01:48:33.703Z,6.40
2018-06-25T01:51:02.826Z,6.57
2018-06-25T01:53:31.805Z,6.40
2018-06-25T01:56:00.767Z,8.47
2018-06-25T01:58:30.929Z,6.73
2018-06-25T02:00:59.945Z,9.20
2018-06-25T02:03:28.973Z,7.47
2018-06-25T02:05:57.937Z,6.83
2018-06-25T02:08:26.969Z,9.07
2018-06-25T02:10:56.013Z,10.17
2018-06-25T02:13:25.022Z,7.53
2018-06-25T02:15:54.072Z,5.87
2018-06-25T02:18:23.071Z,6.80
2018-06-25T02:20:52.057Z,6.57
2018-06-25T02:23:21.415Z,7.73
2018-06-25T02:25:50.464Z,8.27
2018-06-25T02:28:19.447Z,10.60
2018-06-25T02:30:48.521Z,10.43
2018-06-25T02:33:17.520Z,7.70
2018-06-25T02:35:46.535Z,8.30
2018-06-25T02:38:15.518Z,8.67
2018-06-25T02:40:44.529Z,10.70
2018-06-25T02:43:13.563Z,9.10
2018-06-25T02:45:42.537Z,10.63
2018-06-25T02:48:11.686Z,11.10
2018-06-25T02:50:40.669Z,10.63
2018-06-25T02:53:09.708Z,10.13
2018-06-25T02:55:38.791Z,9.70
2018-06-25T02:58:07.886Z,11.67
2018-06-25T03:00:36.879Z,13.90
2018-06-25T03:03:06.261Z,13.13
2018-06-25T03:05:35.381Z,13.17
2018-06-25T03:08:04.366Z,10.93
2018-06-25T03:10:33.353Z,11.57
2018-06-25T03:13:02.361Z,9.73
2018-06-25T03:15:31.337Z,10.50
2018-06-25T03:18:00.433Z,9.73
2018-06-25T03:20:29.458Z,10.57
2018-06-25T03:22:58.472Z,15.17
2018-06-25T03:25:27.466Z,9.83
2018-06-25T03:27:56.450Z,11.90
2018-06-25T03:30:25.429Z,10.53
2018-06-25T03:32:54.468Z,9.83
2018-06-25T03:35:23.426Z,14.33
2018-06-25T03:37:52.446Z,9.33
2018-06-25T03:40:21.440Z,14.03
2018-06-25T03:42:50.574Z,10.30
2018-06-25T03:45:19.976Z,11.37
2018-06-25T03:47:48.950Z,12.03
2018-06-25T03:50:17.944Z,13.80
2018-06-25T03:52:46.872Z,11.43
2018-06-25T03:55:15.806Z,13.53
2018-06-25T03:57:44.782Z,9.23
2018-06-25T04:00:13.796Z,11.17
2018-06-25T04:02:42.807Z,10.10
2018-06-25T04:05:11.824Z,14.13
2018-06-25T04:07:40.791Z,9.47
2018-06-25T04:10:09.914Z,13.00
2018-06-25T04:12:38.905Z,10.37
2018-06-25T04:15:08.088Z,9.07
2018-06-25T04:17:37.128Z,12.47
2018-06-25T04:20:06.130Z,10.37
2018-06-25T04:22:35.136Z,12.07
2018-06-25T04:25:04.140Z,12.33
2018-06-25T04:27:33.102Z,11.80
2018-06-25T04:30:02.082Z,13.63
2018-06-25T04:32:31.085Z,9.67
2018-06-25T04:35:00.104Z,8.97
2018-06-25T04:37:29.061Z,10.57
2018-06-25T04:39:58.038Z,12.43
2018-06-25T04:42:27.065Z,11.87
2018-06-25T04:44:56.099Z,12.73
2018-06-25T04:47:25.126Z,9.83
2018-06-25T04:49:54.157Z,11.20
2018-06-25T04:52:23.153Z,12.33
2018-06-25T04:54:52.147Z,10.10
2018-06-25T04:57:21.395Z,16.03
2018-06-25T04:59:50.478Z,18.43
2018-06-25T05:02:19.579Z,14.60
2018-06-25T05:04:48.577Z,11.80
2018-06-25T05:07:17.563Z,15.20
2018-06-25T05:09:46.597Z,12.53
2018-06-25T05:12:15.591Z,14.47
2018-06-25T05:14:44.609Z,11.80
2018-06-25T05:17:13.577Z,12.73
2018-06-25T05:19:42.549Z,10.20
2018-06-25T05:22:11.631Z,11.37
2018-06-25T05:24:40.727Z,12.80
2018-06-25T05:27:09.763Z,13.07
2018-06-25T05:29:38.779Z,12.33
2018-06-25T05:32:07.764Z,13.73
2018-06-25T05:34:36.780Z,13.40
2018-06-25T05:37:05.772Z,12.87
2018-06-25T05:39:34.799Z,16.23
2018-06-25T05:42:03.889Z,14.83
2018-06-25T05:44:32.923Z,15.87
2018-06-25T05:47:01.869Z,17.07
2018-06-25T05:49:30.879Z,17.43
2018-06-25T05:52:00.218Z,11.87
2018-06-25T05:54:29.210Z,14.93
2018-06-25T05:56:58.231Z,11.60
2018-06-25T05:59:27.227Z,11.80
2018-06-25T06:01:56.201Z,13.17
2018-06-25T06:04:25.217Z,12.03
2018-06-25T06:06:54.172Z,12.73
2018-06-25T06:09:23.192Z,14.00
2018-06-25T06:11:52.295Z,12.17
2018-06-25T06:14:21.286Z,13.10
2018-06-25T06:16:50.320Z,14.73
2018-06-25T06:19:19.326Z,10.00
2018-06-25T06:21:48.277Z,11.73
2018-06-25T06:24:17.352Z,13.97
2018-06-25T06:26:46.277Z,11.40
2018-06-25T06:29:15.367Z,10.30
2018-06-25T06:31:44.361Z,11.33
2018-06-25T06:34:13.424Z,10.03
2018-06-25T06:36:42.421Z,13.03
2018-06-25T06:39:14.925Z,9.03
2018-06-25T06:41:45.330Z,10.10
2018-06-25T06:44:14.826Z,13.87
2018-06-25T06:46:43.868Z,10.07
2018-06-25T06:49:12.888Z,8.77
2018-06-25T06:51:42.332Z,8.67
2018-06-25T06:54:11.368Z,6.87
2018-06-25T06:56:40.406Z,7.53
2018-06-25T06:59:09.365Z,8.17
2018-06-25T07:01:38.332Z,8.60
2018-06-25T07:04:07.338Z,7.97
2018-06-25T07:06:36.381Z,7.37
2018-06-25T07:09:08.674Z,7.77
2018-06-25T07:11:37.771Z,6.57
2018-06-25T07:14:07.646Z,6.47
2018-06-25T07:16:37.089Z,7.03
2018-06-25T07:19:06.115Z,5.97
2018-06-25T07:21:35.088Z,7.63
2018-06-25T07:24:04.123Z,7.83
2018-06-25T07:26:33.153Z,8.80
2018-06-25T07:29:02.112Z,8.07
2018-06-25T07:31:31.076Z,7.73
2018-06-25T07:34:00.055Z,10.43
2018-06-25T07:36:29.076Z,11.33
2018-06-25T07:38:58.068Z,11.17
2018-06-25T07:41:27.070Z,8.97
2018-06-25T07:43:56.071Z,7.87
2018-06-25T07:46:25.144Z,7.77
2018-06-25T07:48:54.270Z,12.50
2018-06-25T07:51:23.290Z,17.53
2018-06-25T07:53:52.388Z,13.70
2018-06-25T07:56:21.490Z,10.43
2018-06-25T07:58:50.584Z,11.53
2018-06-25T08:01:19.556Z,9.37
2018-06-25T08:03:48.632Z,9.97
2018-06-25T08:06:17.769Z,9.60
2018-06-25T08:08:46.747Z,8.87
2018-06-25T08:11:15.858Z,8.97
2018-06-25T08:13:45.036Z,7.97
2018-06-25T08:16:13.822Z,7.00
2018-06-25T08:18:42.818Z,7.53
2018-06-25T08:21:11.768Z,8.43
2018-06-25T08:23:40.854Z,9.50
2018-06-25T08:26:09.891Z,7.27
2018-06-25T08:28:38.587Z,8.90
2018-06-25T08:31:07.498Z,9.23
2018-06-25T08:33:36.485Z,8.20
2018-06-25T08:36:05.529Z,9.47
2018-06-25T08:38:34.541Z,10.33
2018-06-25T08:41:03.513Z,7.23
2018-06-25T08:43:32.523Z,7.60
2018-06-25T08:46:01.574Z,11.67
2018-06-25T08:48:30.621Z,7.47
2018-06-25T08:50:59.621Z,9.33
2018-06-25T08:53:28.617Z,10.93
2018-06-25T08:55:57.397Z,9.37
2018-06-25T08:58:26.290Z,9.20
2018-06-25T09:00:55.269Z,12.47
2018-06-25T09:03:24.305Z,8.67
2018-06-25T09:05:53.341Z,8.53
2018-06-25T09:08:22.447Z,8.80
2018-06-25T09:10:51.486Z,8.63
2018-06-25T09:13:20.717Z,9.03
2018-06-25T09:15:49.746Z,9.20
2018-06-25T09:18:18.782Z,11.10
2018-06-25T09:20:47.783Z,11.57
2018-06-25T09:23:16.737Z,14.17
2018-06-25T09:25:45.762Z,13.70
2018-06-25T09:28:14.785Z,12.77
2018-06-25T09:30:43.847Z,11.63
2018-06-25T09:33:12.859Z,13.60
2018-06-25T09:35:42.038Z,13.33
2018-06-25T09:38:11.049Z,11.60
2018-06-25T09:40:40.021Z,11.13
2018-06-25T09:43:09.045Z,14.20
2018-06-25T09:45:38.045Z,14.03
2018-06-25T09:48:07.122Z,14.50
2018-06-25T09:50:36.117Z,15.13
2018-06-25T09:53:05.399Z,13.43
2018-06-25T09:55:34.509Z,11.17
2018-06-25T09:58:03.554Z,15.10
2018-06-25T10:00:37.912Z,10.83
2018-06-25T10:03:07.272Z,11.47
2018-06-25T10:05:36.309Z,11.77
2018-06-25T10:08:05.313Z,12.70
2018-06-25T10:10:34.386Z,10.20
2018-06-25T10:13:03.485Z,10.57
2018-06-25T10:15:32.560Z,11.07
2018-06-25T10:18:01.677Z,10.43
2018-06-25T10:20:30.653Z,12.13
2018-06-25T10:22:59.592Z,10.93
2018-06-25T10:25:28.709Z,9.70
2018-06-25T10:27:57.700Z,10.13
2018-06-25T10:30:26.704Z,9.90
2018-06-25T10:32:55.719Z,11.57
2018-06-25T10:35:24.737Z,11.00
2018-06-25T10:37:53.761Z,12.30
2018-06-25T10:40:22.922Z,11.43
2018-06-25T10:42:52.544Z,12.50
2018-06-25T10:45:21.540Z,10.93
2018-06-25T10:47:50.542Z,12.30
2018-06-25T10:50:19.548Z,9.53
2018-06-25T10:52:48.607Z,10.20
2018-06-25T10:55:17.696Z,10.93
2018-06-25T10:57:46.752Z,9.77
2018-06-25T11:00:16.015Z,9.47
2018-06-25T11:02:44.884Z,11.03
2018-06-25T11:05:13.892Z,9.97
2018-06-25T11:07:43.159Z,11.43
2018-06-25T11:10:11.912Z,11.47
2018-06-25T11:12:40.982Z,11.50
2018-06-25T11:15:10.021Z,14.67
2018-06-25T11:17:39.252Z,11.60
2018-06-25T11:20:08.262Z,9.67
2018-06-25T11:22:37.342Z,10.10
2018-06-25T11:25:06.460Z,8.20
2018-06-25T11:27:35.593Z,9.10
2018-06-25T11:30:04.570Z,9.07
2018-06-25T11:32:33.536Z,10.30
2018-06-25T11:35:02.520Z,10.10
2018-06-25T11:37:31.611Z,9.53
2018-06-25T11:40:00.633Z,8.80
2018-06-25T11:42:29.915Z,8.20
2018-06-25T11:45:02.216Z,7.47
2018-06-25T11:47:31.272Z,12.33
2018-06-25T11:50:00.368Z,11.03
2018-06-25T11:52:29.414Z,11.10
2018-06-25T11:54:58.389Z,10.77
2018-06-25T11:57:27.424Z,11.10
2018-06-25T11:59:56.799Z,10.30
2018-06-25T12:02:26.013Z,10.77
2018-06-25T12:04:55.041Z,9.53
2018-06-25T12:07:24.137Z,8.27
2018-06-25T12:09:53.107Z,10.33
2018-06-25T12:12:22.100Z,7.80
2018-06-25T12:14:51.113Z,8.03
2018-06-25T12:17:20.209Z,8.47
2018-06-25T12:19:49.291Z,8.43
2018-06-25T12:22:18.273Z,8.93
2018-06-25T12:24:47.293Z,12.57
2018-06-25T12:27:16.391Z,8.57
2018-06-25T12:29:45.391Z,10.07
2018-06-25T12:32:14.395Z,10.53
2018-06-25T12:34:43.401Z,8.40
2018-06-25T12:37:12.493Z,7.20
2018-06-25T12:39:41.560Z,11.30
2018-06-25T12:42:10.551Z,9.30
2018-06-25T12:44:39.521Z,10.00
2018-06-25T12:47:08.757Z,11.83
2018-06-25T12:49:37.777Z,9.93
2018-06-25T12:52:06.766Z,8.10
2018-06-25T12:54:35.746Z,7.43
2018-06-25T12:57:04.870Z,6.63
2018-06-25T12:59:33.951Z,8.57
2018-06-25T13:02:02.941Z,6.60
2018-06-25T13:04:32.121Z,7.00
2018-06-25T13:07:01.149Z,5.83
2018-06-25T13:09:30.193Z,5.43
2018-06-25T13:11:59.203Z,6.73
2018-06-25T13:14:28.208Z,8.63
2018-06-25T13:16:57.346Z,7.27
2018-06-25T13:19:26.332Z,6.37
2018-06-25T13:21:55.338Z,8.03
2018-06-25T13:24:24.052Z,7.77
2018-06-25T13:26:52.912Z,5.17
2018-06-25T13:29:21.982Z,4.67
2018-06-25T13:31:50.970Z,6.87
2018-06-25T13:34:19.949Z,6.13
2018-06-25T13:36:49.003Z,6.23
2018-06-25T13:39:18.019Z,6.33
2018-06-25T13:41:46.998Z,8.93
2018-06-25T13:44:15.980Z,6.13
2018-06-25T13:46:45.012Z,4.77
2018-06-25T13:49:14.004Z,5.83
2018-06-25T13:51:42.962Z,7.17
2018-06-25T13:54:12.042Z,6.73
2018-06-25T13:56:41.138Z,7.13
2018-06-25T13:59:10.368Z,5.20
2018-06-25T14:01:39.338Z,6.10
2018-06-25T14:04:08.368Z,6.40
2018-06-25T14:06:37.349Z,5.10
2018-06-25T14:09:08.186Z,5.27
2018-06-25T14:11:37.266Z,6.37
2018-06-25T14:14:07.090Z,4.83
2018-06-25T14:16:36.611Z,5.00
2018-06-25T14:19:05.598Z,6.87
2018-06-25T14:21:34.865Z,4.43
2018-06-25T14:25:11.032Z,4.40
2018-06-25T14:27:45.458Z,5.73
2018-06-25T14:30:19.975Z,5.60
2018-06-25T14:32:50.924Z,3.93
2018-06-25T14:35:19.992Z,3.93
2018-06-25T14:37:48.952Z,4.67
2018-06-25T14:40:18.032Z,3.33
2018-06-25T14:42:47.118Z,4.53
2018-06-25T14:45:16.339Z,4.67
2018-06-25T14:47:45.367Z,4.53
2018-06-25T14:50:14.376Z,5.27
2018-06-25T14:52:43.522Z,6.10
2018-06-25T14:55:12.501Z,4.73
2018-06-25T14:57:41.462Z,4.53
2018-06-25T15:00:10.495Z,4.00
2018-06-25T15:02:39.494Z,3.63
2018-06-25T15:05:08.462Z,4.47
2018-06-25T15:07:37.450Z,5.50
2018-06-25T15:10:06.508Z,3.70
2018-06-25T15:12:35.486Z,3.37
2018-06-25T15:15:04.498Z,4.47
2018-06-25T15:17:33.536Z,5.20
2018-06-25T15:20:02.673Z,7.83
2018-06-25T15:22:31.657Z,4.73
2018-06-25T15:25:00.753Z,4.67
2018-06-25T15:27:29.797Z,4.40
2018-06-25T15:29:58.825Z,6.57
2018-06-25T15:32:30.679Z,5.43
2018-06-25T15:34:59.709Z,7.60
2018-06-25T15:37:29.090Z,5.97
2018-06-25T15:39:58.776Z,5.87
2018-06-25T15:42:27.747Z,6.70
2018-06-25T15:44:56.765Z,8.00
2018-06-25T15:47:25.862Z,5.53
2018-06-25T15:49:55.269Z,5.40
2018-06-25T15:52:24.595Z,5.83
2018-06-25T15:54:53.745Z,4.70
2018-06-25T15:57:22.765Z,4.43
2018-06-25T15:59:51.772Z,5.03
2018-06-25T16:02:20.777Z,4.73
2018-06-25T16:04:49.835Z,3.40
2018-06-25T16:07:18.785Z,3.50
2018-06-25T16:09:47.806Z,6.57
2018-06-25T16:12:16.853Z,5.37
2018-06-25T16:14:45.829Z,4.80
2018-06-25T16:17:14.780Z,5.43
2018-06-25T16:19:43.809Z,5.30
2018-06-25T16:22:12.789Z,5.30
2018-06-25T16:24:41.783Z,3.70
2018-06-25T16:27:10.779Z,6.53
2018-06-25T16:29:39.788Z,5.57
2018-06-25T16:32:09.069Z,5.50
2018-06-25T16:34:38.062Z,3.17
2018-06-25T16:37:07.037Z,5.30
2018-06-25T16:39:36.008Z,5.90
2018-06-25T16:42:04.921Z,4.67
2018-06-25T16:44:33.796Z,4.93
2018-06-25T16:47:02.824Z,5.73
2018-06-25T16:49:31.896Z,5.13
2018-06-25T16:52:00.724Z,4.97
2018-06-25T16:54:29.685Z,4.03
2018-06-25T16:56:58.396Z,5.63
2018-06-25T16:59:27.507Z,4.00
2018-06-25T17:01:56.538Z,6.83
2018-06-25T17:04:25.575Z,5.13
2018-06-25T17:06:54.568Z,4.47
2018-06-25T17:09:23.580Z,4.87
2018-06-25T17:11:52.554Z,4.10
2018-06-25T17:14:21.544Z,6.07
2018-06-25T17:16:50.520Z,3.53
2018-06-25T17:19:19.461Z,3.77
2018-06-25T17:21:48.510Z,6.13
2018-06-25T17:24:17.456Z,3.63
2018-06-25T17:26:46.430Z,2.63
2018-06-25T17:29:15.434Z,3.00
2018-06-25T17:31:44.418Z,3.10
2018-06-25T17:34:13.357Z,4.53
2018-06-25T17:36:42.380Z,5.77
2018-06-25T17:39:11.396Z,3.20
2018-06-25T17:41:40.414Z,3.60
2018-06-25T17:44:09.370Z,3.23
2018-06-25T17:46:38.374Z,5.00
2018-06-25T17:49:07.418Z,3.97
2018-06-25T17:51:36.458Z,4.93
2018-06-25T17:54:05.688Z,4.50
2018-06-25T17:56:34.696Z,3.07
2018-06-25T17:59:03.839Z,4.33
2018-06-25T18:01:32.934Z,5.00
2018-06-25T18:04:01.980Z,4.27
2018-06-25T18:06:30.957Z,4.90
2018-06-25T18:08:59.906Z,3.23
2018-06-25T18:11:29.003Z,5.20
2018-06-25T18:13:58.003Z,3.37
2018-06-25T18:16:29.126Z,3.70
2018-06-25T18:18:58.163Z,4.50
2018-06-25T18:21:27.203Z,4.00
2018-06-25T18:23:56.218Z,4.07
2018-06-25T18:26:25.173Z,4.60
2018-06-25T18:28:54.145Z,2.63
2018-06-25T18:31:23.168Z,3.93
2018-06-25T18:33:52.301Z,3.27
2018-06-25T18:36:21.277Z,2.27
2018-06-25T18:38:50.245Z,3.17
2018-06-25T18:41:19.307Z,3.10
2018-06-25T18:43:48.331Z,3.07
2018-06-25T18:46:17.317Z,2.80
2018-06-25T18:48:46.291Z,9.20
2018-06-25T18:51:15.341Z,2.90
2018-06-25T18:53:44.385Z,2.57
2018-06-25T18:56:13.397Z,3.50
2018-06-25T18:58:42.413Z,3.17
2018-06-25T19:01:11.427Z,2.67
2018-06-25T19:03:40.413Z,3.80
2018-06-25T19:06:10.351Z,4.20
2018-06-25T19:08:39.329Z,3.63
2018-06-25T19:11:08.537Z,4.03
2018-06-25T19:13:37.569Z,3.93
2018-06-25T19:16:06.585Z,4.33
2018-06-25T19:18:35.435Z,4.17
2018-06-25T19:21:04.351Z,2.90
2018-06-25T19:23:33.412Z,3.13
2018-06-25T19:26:02.409Z,2.53
2018-06-25T19:28:31.470Z,3.30
2018-06-25T19:31:00.576Z,4.03
2018-06-25T19:33:29.653Z,3.97
2018-06-25T19:35:58.665Z,3.40
2018-06-25T19:38:27.672Z,3.27
2018-06-25T19:40:56.726Z,3.07
2018-06-25T19:43:25.853Z,1.97
2018-06-25T19:45:54.877Z,3.47
2018-06-25T19:48:24.297Z,2.57
2018-06-25T19:50:53.345Z,3.40
2018-06-25T19:53:22.352Z,3.87
2018-06-25T19:55:51.360Z,2.47
2018-06-25T19:58:20.331Z,2.63
2018-06-25T20:00:49.362Z,2.50
2018-06-25T20:03:18.392Z,3.03
2018-06-25T20:05:47.369Z,3.97
2018-06-25T20:08:16.455Z,3.60
2018-06-25T20:10:45.450Z,3.23
2018-06-25T20:13:14.486Z,4.20
2018-06-25T20:15:43.569Z,2.80
2018-06-25T20:18:12.500Z,3.67
2018-06-25T20:20:41.568Z,3.67
2018-06-25T20:23:10.584Z,2.57
2018-06-25T20:25:39.612Z,2.00
2018-06-25T20:28:08.549Z,2.43
2018-06-25T20:30:37.684Z,2.70
2018-06-25T20:33:06.702Z,2.90
2018-06-25T20:35:35.666Z,2.77
2018-06-25T20:38:06.506Z,4.87
2018-06-25T20:40:35.506Z,3.07
2018-06-25T20:43:04.557Z,2.17
2018-06-25T20:45:33.655Z,2.30
2018-06-25T20:48:02.747Z,2.87
2018-06-25T20:50:31.994Z,2.50
2018-06-25T20:53:01.056Z,3.13
2018-06-25T20:55:30.032Z,2.50
2018-06-25T20:57:58.990Z,2.03
2018-06-25T21:00:27.975Z,3.43
2018-06-25T21:02:57.016Z,2.50
2018-06-25T21:05:26.006Z,3.80
2018-06-25T21:07:54.998Z,1.83
2018-06-25T21:10:24.116Z,6.10
2018-06-25T21:12:53.155Z,2.60
2018-06-25T21:15:22.119Z,3.00
2018-06-25T21:17:51.200Z,3.57
2018-06-25T21:20:20.377Z,4.10
2018-06-25T21:22:49.471Z,2.90
2018-06-25T21:25:18.525Z,3.50
2018-06-25T21:27:47.560Z,2.30
2018-06-25T21:30:16.557Z,1.70
2018-06-25T21:32:45.521Z,2.47
2018-06-25T21:35:14.641Z,2.73
2018-06-25T21:37:43.601Z,1.97
2018-06-25T21:40:12.325Z,2.33
2018-06-25T21:42:41.183Z,4.20
2018-06-25T21:45:10.209Z,2.47
2018-06-25T21:47:39.178Z,6.20
2018-06-25T21:50:08.134Z,5.00
2018-06-25T21:52:37.127Z,3.53
2018-06-25T21:55:06.521Z,3.00
2018-06-25T21:57:42.301Z,2.97
2018-06-25T22:00:13.073Z,5.00
2018-06-25T22:02:42.582Z,3.10
2018-06-25T22:05:11.593Z,3.87
2018-06-25T22:07:40.607Z,6.40
2018-06-25T22:10:09.609Z,5.53
2018-06-25T22:12:38.569Z,2.87
2018-06-25T22:15:07.985Z,3.20
2018-06-25T22:17:36.945Z,4.07
2018-06-25T22:20:05.982Z,4.77
2018-06-25T22:22:34.969Z,3.97
2018-06-25T22:25:03.991Z,3.77
2018-06-25T22:27:32.981Z,4.33
2018-06-25T22:30:01.965Z,5.63
2018-06-25T22:32:30.937Z,4.20
2018-06-25T22:34:59.933Z,7.23
2018-06-25T22:37:28.911Z,2.77
2018-06-25T22:39:57.987Z,3.67
2018-06-25T22:42:29.216Z,7.90
2018-06-25T22:44:58.241Z,4.53
2018-06-25T22:47:27.255Z,4.67
2018-06-25T22:49:56.171Z,4.40
2018-06-25T22:52:25.192Z,3.90
2018-06-25T22:54:54.188Z,5.20
2018-06-25T22:57:23.153Z,7.70
2018-06-25T22:59:52.113Z,3.87
2018-06-25T23:02:21.161Z,4.53
2018-06-25T23:04:50.161Z,5.57
2018-06-25T23:07:19.135Z,6.63
2018-06-25T23:09:48.106Z,5.80
2018-06-25T23:12:17.232Z,4.17
2018-06-25T23:14:46.262Z,5.63
2018-06-25T23:17:15.260Z,3.83
2018-06-25T23:19:44.226Z,5.27
2018-06-25T23:22:13.288Z,6.20
2018-06-25T23:24:43.432Z,4.20
2018-06-25T23:27:12.380Z,7.97
2018-06-25T23:29:41.350Z,5.47
2018-06-25T23:32:10.348Z,6.13
2018-06-25T23:34:39.348Z,6.03
2018-06-25T23:37:08.412Z,5.67
2018-06-25T23:39:37.392Z,5.43
2018-06-25T23:42:06.394Z,6.73
2018-06-25T23:44:35.392Z,6.97
2018-06-25T23:47:05.336Z,5.43
2018-06-25T23:49:34.380Z,7.57
2018-06-25T23:52:03.368Z,6.97
2018-06-25T23:54:32.410Z,10.67
2018-06-25T23:57:01.376Z,8.00
2018-06-25T23:59:30.360Z,5.57
